^^
Meteo Knjazevac Station Historical Data
Daily Summary for August 21, 2022 Units:  Both    English   Metric
Daily Weekly Monthly Yearly Custom
  High: Low: Average:
Temperature: 45.6 °F /  7.6 °C 38.3 °F /  3.5 °C 41.4 °F /  5.2 °C
Dew Point: 45.3 °F /  7.4 °C 38 °F /  3.3 °C 41.2 °F /  5.1 °C
Humidity: 99% 99% 99%
Wind Speed: 19.1mph /  30.7km/h - 8.2mph /  13.2km/h
Wind Gust: 21mph /  33.8km/h - -
Wind- - SW
Pressure: 29.83 in /  1010 hPa 29.69 in /  1005.3 hPa -
Precipitation: 0.49 in /  12.45 mm    
Historical Graphs
 
 
Tabular Data for August 21, 2022
Time Temperature Dew Point Pressure Wind Wind Speed Wind Gust Humidity Rainfall Rate (Hourly) solar Conditions
00:04 45.6 °F /  7.6 °C 45.3 °F /  7.4 °C 29.74in /  1007hPa WSW 7.1mph /  11.4km/h 7mph /  11.3km/h 99% 0.09in /  2.29mm 0 W/m2
00:09 45.5 °F /  7.5 °C 45.2 °F /  7.3 °C 29.75in /  1007.3hPa West 8.6mph /  13.8km/h 8mph /  12.9km/h 99% 0.09in /  2.29mm 0 W/m2
00:14 45.4 °F /  7.4 °C 45.1 °F /  7.3 °C 29.75in /  1007.3hPa West 9.8mph /  15.8km/h 9mph /  14.5km/h 99% 0.10in /  2.54mm 0 W/m2
00:19 45.1 °F /  7.3 °C 44.9 °F /  7.2 °C 29.75in /  1007.3hPa West 11mph /  17.7km/h 14mph /  22.5km/h 99% 0.11in /  2.79mm 0 W/m2
00:24 45 °F /  7.2 °C 44.7 °F /  7.1 °C 29.74in /  1007hPa West 6.3mph /  10.1km/h 14mph /  22.5km/h 99% 0.13in /  3.3mm 0 W/m2
00:29 45 °F /  7.2 °C 44.7 °F /  7.1 °C 29.74in /  1007hPa West 5.3mph /  8.5km/h 7mph /  11.3km/h 99% 0.14in /  3.56mm 0 W/m2
00:34 44.9 °F /  7.2 °C 44.6 °F /  7 °C 29.74in /  1007hPa West 7.5mph /  12.1km/h 8mph /  12.9km/h 99% 0.13in /  3.3mm 0 W/m2
00:39 44.8 °F /  7.1 °C 44.5 °F /  6.9 °C 29.74in /  1007hPa West 8.2mph /  13.2km/h 8mph /  12.9km/h 99% 0.13in /  3.3mm 0 W/m2
00:44 44.6 °F /  7 °C 44.3 °F /  6.8 °C 29.74in /  1007hPa West 7.5mph /  12.1km/h 9mph /  14.5km/h 99% 0.13in /  3.3mm 0 W/m2
00:49 44.6 °F /  7 °C 44.3 °F /  6.8 °C 29.73in /  1006.7hPa WNW 3.4mph /  5.5km/h 8mph /  12.9km/h 99% 0.14in /  3.56mm 0 W/m2
00:54 44.5 °F /  6.9 °C 44.2 °F /  6.8 °C 29.72in /  1006.3hPa NNE 3.5mph /  5.6km/h 4mph /  6.4km/h 99% 0.14in /  3.56mm 0 W/m2
00:59 44.4 °F /  6.9 °C 44.2 °F /  6.8 °C 29.72in /  1006.3hPa NNE 4.2mph /  6.8km/h 5mph /  8km/h 99% 0.14in /  3.56mm 0 W/m2
01:04 44.4 °F /  6.9 °C 44.2 °F /  6.8 °C 29.71in /  1006hPa NE 4.3mph /  6.9km/h 5mph /  8km/h 99% 0.14in /  3.56mm 0 W/m2
01:09 44.4 °F /  6.9 °C 44.2 °F /  6.8 °C 29.71in /  1006hPa NE 4mph /  6.4km/h 5mph /  8km/h 99% 0.13in /  3.3mm 0 W/m2
01:14 44.4 °F /  6.9 °C 44.2 °F /  6.8 °C 29.71in /  1006hPa NE 4.3mph /  6.9km/h 5mph /  8km/h 99% 0.12in /  3.05mm 0 W/m2
01:19 44.4 °F /  6.9 °C 44.2 °F /  6.8 °C 29.70in /  1005.6hPa NE 3.7mph /  6km/h 5mph /  8km/h 99% 0.11in /  2.79mm 0 W/m2
01:24 44.4 °F /  6.9 °C 44.2 °F /  6.8 °C 29.70in /  1005.6hPa NE 5.3mph /  8.5km/h 5mph /  8km/h 99% 0.10in /  2.54mm 0 W/m2
01:29 44.4 °F /  6.9 °C 44.2 °F /  6.8 °C 29.70in /  1005.6hPa NE 6.3mph /  10.1km/h 7mph /  11.3km/h 99% 0.08in /  2.03mm 0 W/m2
01:34 44.4 °F /  6.9 °C 44.2 °F /  6.8 °C 29.69in /  1005.3hPa NE 4.4mph /  7.1km/h 7mph /  11.3km/h 99% 0.05in /  1.27mm 0 W/m2
01:39 44.5 °F /  6.9 °C 44.2 °F /  6.8 °C 29.69in /  1005.3hPa NE 6.1mph /  9.8km/h 5.1mph /  8.2km/h 99% 0.04in /  1.02mm 0 W/m2
01:44 44.5 °F /  6.9 °C 44.3 °F /  6.8 °C 29.69in /  1005.3hPa North 6.2mph /  10km/h 8mph /  12.9km/h 99% 0.04in /  1.02mm 0 W/m2
01:49 44.4 °F /  6.9 °C 44.2 °F /  6.8 °C 29.69in /  1005.3hPa NNW 7.2mph /  11.6km/h 7mph /  11.3km/h 99% 0.02in /  0.51mm 0 W/m2
01:54 44.4 °F /  6.9 °C 44.2 °F /  6.8 °C 29.70in /  1005.6hPa NNW 7.6mph /  12.2km/h 9mph /  14.5km/h 99% 0.01in /  0.25mm 0 W/m2
01:59 44.3 °F /  6.8 °C 44.1 °F /  6.7 °C 29.70in /  1005.6hPa NW 7.8mph /  12.6km/h 8mph /  12.9km/h 99% 0.01in /  0.25mm 0 W/m2
02:04 44.3 °F /  6.8 °C 44.1 °F /  6.7 °C 29.70in /  1005.6hPa NW 9mph /  14.5km/h 8mph /  12.9km/h 99% 0.01in /  0.25mm 0 W/m2
02:09 44.3 °F /  6.8 °C 44.1 °F /  6.7 °C 29.70in /  1005.6hPa WNW 16.3mph /  26.2km/h 13.6mph /  21.9km/h 99% 0.02in /  0.51mm 0 W/m2
02:14 44.1 °F /  6.7 °C 43.8 °F /  6.6 °C 29.70in /  1005.6hPa WSW 19.1mph /  30.7km/h 21mph /  33.8km/h 99% 0.03in /  0.76mm 0 W/m2
02:19 43.5 °F /  6.4 °C 43.2 °F /  6.2 °C 29.71in /  1006hPa WSW 16.5mph /  26.6km/h 21mph /  33.8km/h 99% 0.04in /  1.02mm 0 W/m2
02:24 43.3 °F /  6.3 °C 43 °F /  6.1 °C 29.71in /  1006hPa WSW 14.8mph /  23.8km/h 18mph /  29km/h 99% 0.05in /  1.27mm 0 W/m2
02:29 43.1 °F /  6.2 °C 42.8 °F /  6 °C 29.71in /  1006hPa WSW 15.7mph /  25.3km/h 18mph /  29km/h 99% 0.07in /  1.78mm 0 W/m2
02:34 42.9 °F /  6.1 °C 42.6 °F /  5.9 °C 29.71in /  1006hPa WSW 14.5mph /  23.3km/h 17mph /  27.4km/h 99% 0.08in /  2.03mm 0 W/m2
02:39 42.7 °F /  5.9 °C 42.5 °F /  5.8 °C 29.70in /  1005.6hPa WSW 10mph /  16.1km/h 16mph /  25.7km/h 99% 0.10in /  2.54mm 0 W/m2
02:44 42.6 °F /  5.9 °C 42.3 °F /  5.7 °C 29.70in /  1005.6hPa WSW 9.8mph /  15.8km/h 10.1mph /  16.3km/h 99% 0.14in /  3.56mm 0 W/m2
02:49 42.4 °F /  5.8 °C 42.2 °F /  5.7 °C 29.70in /  1005.6hPa West 13.7mph /  22km/h 12.7mph /  20.4km/h 99% 0.16in /  4.06mm 0 W/m2
02:54 42.4 °F /  5.8 °C 42.2 °F /  5.7 °C 29.70in /  1005.6hPa West 14.6mph /  23.5km/h 16mph /  25.7km/h 99% 0.17in /  4.32mm 0 W/m2
02:59 42.3 °F /  5.7 °C 42 °F /  5.6 °C 29.70in /  1005.6hPa West 13.1mph /  21.1km/h 15mph /  24.1km/h 99% 0.16in /  4.06mm 0 W/m2
03:04 42.3 °F /  5.7 °C 42 °F /  5.6 °C 29.70in /  1005.6hPa SW 15.7mph /  25.3km/h 14mph /  22.5km/h 99% 0.16in /  4.06mm 0 W/m2
03:09 42.3 °F /  5.7 °C 42 °F /  5.6 °C 29.70in /  1005.6hPa SSW 12.2mph /  19.6km/h 21mph /  33.8km/h 99% 0.16in /  4.06mm 0 W/m2
03:14 42.2 °F /  5.7 °C 41.9 °F /  5.5 °C 29.70in /  1005.6hPa SSW 7.8mph /  12.6km/h 16mph /  25.7km/h 99% 0.15in /  3.81mm 0 W/m2
03:19 42.1 °F /  5.6 °C 41.8 °F /  5.4 °C 29.71in /  1006hPa SSW 6.9mph /  11.1km/h 8mph /  12.9km/h 99% 0.14in /  3.56mm 0 W/m2
03:24 42 °F /  5.6 °C 41.7 °F /  5.4 °C 29.71in /  1006hPa SW 7.4mph /  11.9km/h 8mph /  12.9km/h 99% 0.12in /  3.05mm 0 W/m2
03:29 42 °F /  5.6 °C 41.7 °F /  5.4 °C 29.71in /  1006hPa SW 7.2mph /  11.6km/h 8mph /  12.9km/h 99% 0.11in /  2.79mm 0 W/m2
03:34 42 °F /  5.6 °C 41.7 °F /  5.4 °C 29.71in /  1006hPa SW 7.6mph /  12.2km/h 8mph /  12.9km/h 99% 0.10in /  2.54mm 0 W/m2
03:39 42 °F /  5.6 °C 41.7 °F /  5.4 °C 29.71in /  1006hPa SW 7mph /  11.3km/h 8mph /  12.9km/h 99% 0.08in /  2.03mm 0 W/m2
03:44 41.9 °F /  5.5 °C 41.6 °F /  5.3 °C 29.71in /  1006hPa SW 7.5mph /  12.1km/h 8mph /  12.9km/h 99% 0.06in /  1.52mm 0 W/m2
03:49 41.9 °F /  5.5 °C 41.6 °F /  5.3 °C 29.71in /  1006hPa SW 5.7mph /  9.2km/h 8mph /  12.9km/h 99% 0.02in /  0.51mm 0 W/m2
03:54 41.9 °F /  5.5 °C 41.6 °F /  5.3 °C 29.71in /  1006hPa SW 4.8mph /  7.7km/h 6mph /  9.7km/h 99% 0.01in /  0.25mm 0 W/m2
03:59 41.9 °F /  5.5 °C 41.6 °F /  5.3 °C 29.71in /  1006hPa SW 5mph /  8km/h 6mph /  9.7km/h 99% 0.00in /  0mm 0 W/m2
04:04 41.9 °F /  5.5 °C 41.6 °F /  5.3 °C 29.71in /  1006hPa SW 4.4mph /  7.1km/h 6mph /  9.7km/h 99% 0.01in /  0.25mm 0 W/m2
04:09 41.9 °F /  5.5 °C 41.6 °F /  5.3 °C 29.71in /  1006hPa SW 4.1mph /  6.6km/h 5mph /  8km/h 99% 0.01in /  0.25mm 0 W/m2
04:14 41.9 °F /  5.5 °C 41.6 °F /  5.3 °C 29.71in /  1006hPa SW 4.4mph /  7.1km/h 5mph /  8km/h 99% 0.01in /  0.25mm 0 W/m2
04:19 41.9 °F /  5.5 °C 41.6 °F /  5.3 °C 29.71in /  1006hPa SW 5.2mph /  8.4km/h 5mph /  8km/h 99% 0.01in /  0.25mm 0 W/m2
04:24 41.9 °F /  5.5 °C 41.6 °F /  5.3 °C 29.71in /  1006hPa SW 5.3mph /  8.5km/h 6mph /  9.7km/h 99% 0.01in /  0.25mm 0 W/m2
04:29 41.9 °F /  5.5 °C 41.6 °F /  5.3 °C 29.71in /  1006hPa SW 5.4mph /  8.7km/h 6mph /  9.7km/h 99% 0.01in /  0.25mm 0 W/m2
04:34 41.9 °F /  5.5 °C 41.6 °F /  5.3 °C 29.71in /  1006hPa SW 5.1mph /  8.2km/h 6mph /  9.7km/h 99% 0.01in /  0.25mm 0 W/m2
04:39 41.9 °F /  5.5 °C 41.6 °F /  5.3 °C 29.71in /  1006hPa SW 4.1mph /  6.6km/h 6mph /  9.7km/h 99% 0.01in /  0.25mm 0 W/m2
04:44 42 °F /  5.6 °C 41.7 °F /  5.4 °C 29.71in /  1006hPa SW 3.8mph /  6.1km/h 5mph /  8km/h 99% 0.01in /  0.25mm 0 W/m2
04:49 42 °F /  5.6 °C 41.7 °F /  5.4 °C 29.71in /  1006hPa SW 3.5mph /  5.6km/h 5mph /  8km/h 99% 0.01in /  0.25mm 0 W/m2
04:54 42.1 °F /  5.6 °C 41.8 °F /  5.4 °C 29.72in /  1006.3hPa SW 3.3mph /  5.3km/h 4mph /  6.4km/h 99% 0.01in /  0.25mm 0 W/m2
04:59 42.1 °F /  5.6 °C 41.8 °F /  5.4 °C 29.72in /  1006.3hPa SSW 3.6mph /  5.8km/h 3mph /  4.8km/h 99% 0.01in /  0.25mm 0 W/m2
05:04 42 °F /  5.6 °C 41.7 °F /  5.4 °C 29.72in /  1006.3hPa SW 4.2mph /  6.8km/h 6mph /  9.7km/h 99% 0.01in /  0.25mm 0 W/m2
05:09 42 °F /  5.6 °C 41.7 °F /  5.4 °C 29.72in /  1006.3hPa SW 4mph /  6.4km/h 6mph /  9.7km/h 99% 0.00in /  0mm 0 W/m2
05:14 42.1 °F /  5.6 °C 41.8 °F /  5.4 °C 29.72in /  1006.3hPa SSW 3mph /  4.8km/h 5mph /  8km/h 99% 0.00in /  0mm 0 W/m2
05:19 42 °F /  5.6 °C 41.7 °F /  5.4 °C 29.72in /  1006.3hPa SW 3.6mph /  5.8km/h 4mph /  6.4km/h 99% 0.00in /  0mm 0 W/m2
05:24 41.9 °F /  5.5 °C 41.6 °F /  5.3 °C 29.73in /  1006.7hPa SW 5mph /  8km/h 4mph /  6.4km/h 99% 0.00in /  0mm 0 W/m2
05:29 41.9 °F /  5.5 °C 41.6 °F /  5.3 °C 29.73in /  1006.7hPa SW 5.5mph /  8.9km/h 6mph /  9.7km/h 99% 0.00in /  0mm 0 W/m2
05:34 41.9 °F /  5.5 °C 41.6 °F /  5.3 °C 29.73in /  1006.7hPa SW 6.4mph /  10.3km/h 7mph /  11.3km/h 99% 0.00in /  0mm 0 W/m2
05:39 41.8 °F /  5.4 °C 41.6 °F /  5.3 °C 29.73in /  1006.7hPa SW 8.3mph /  13.4km/h 8mph /  12.9km/h 99% 0.00in /  0mm 0 W/m2
05:44 41.6 °F /  5.3 °C 41.4 °F /  5.2 °C 29.73in /  1006.7hPa SW 7.6mph /  12.2km/h 9mph /  14.5km/h 99% 0.00in /  0mm 0 W/m2
05:49 41.5 °F /  5.3 °C 41.3 °F /  5.2 °C 29.73in /  1006.7hPa SW 7.9mph /  12.7km/h 8mph /  12.9km/h 99% 0.00in /  0mm 0 W/m2
05:54 41.4 °F /  5.2 °C 41.1 °F /  5.1 °C 29.73in /  1006.7hPa SW 7.5mph /  12.1km/h 8mph /  12.9km/h 99% 0.00in /  0mm 0 W/m2
05:59 41.2 °F /  5.1 °C 40.9 °F /  4.9 °C 29.73in /  1006.7hPa SW 7.3mph /  11.7km/h 8mph /  12.9km/h 99% 0.00in /  0mm 0 W/m2
06:04 41 °F /  5 °C 40.7 °F /  4.8 °C 29.73in /  1006.7hPa SW 7.7mph /  12.4km/h 8mph /  12.9km/h 99% 0.00in /  0mm 0 W/m2
06:09 40.9 °F /  4.9 °C 40.6 °F /  4.8 °C 29.73in /  1006.7hPa SW 8.1mph /  13km/h 9mph /  14.5km/h 99% 0.00in /  0mm 0 W/m2
06:14 40.7 °F /  4.8 °C 40.5 °F /  4.7 °C 29.74in /  1007hPa SW 7.9mph /  12.7km/h 9mph /  14.5km/h 99% 0.00in /  0mm 0 W/m2
06:19 40.6 °F /  4.8 °C 40.3 °F /  4.6 °C 29.74in /  1007hPa SW 9.1mph /  14.6km/h 11mph /  17.7km/h 99% 0.00in /  0mm 0 W/m2
06:24 40.5 °F /  4.7 °C 40.2 °F /  4.6 °C 29.74in /  1007hPa SW 9.1mph /  14.6km/h 11mph /  17.7km/h 99% 0.00in /  0mm 0 W/m2
06:29 40.3 °F /  4.6 °C 40 °F /  4.4 °C 29.74in /  1007hPa SW 9.3mph /  15km/h 12mph /  19.3km/h 99% 0.00in /  0mm 0 W/m2
06:34 40.2 °F /  4.6 °C 39.9 °F /  4.4 °C 29.75in /  1007.3hPa SW 9.7mph /  15.6km/h 11mph /  17.7km/h 99% 0.16in /  4.06mm 0 W/m2
06:39 40.1 °F /  4.5 °C 39.8 °F /  4.3 °C 29.75in /  1007.3hPa SW 9.1mph /  14.6km/h 13mph /  20.9km/h 99% 0.16in /  4.06mm 1 W/m2
06:44 39.9 °F /  4.4 °C 39.7 °F /  4.3 °C 29.75in /  1007.3hPa SW 8.6mph /  13.8km/h 10mph /  16.1km/h 99% 0.16in /  4.06mm 1 W/m2
06:49 39.7 °F /  4.3 °C 39.5 °F /  4.2 °C 29.75in /  1007.3hPa SW 7.4mph /  11.9km/h 9mph /  14.5km/h 99% 0.16in /  4.06mm 2 W/m2
06:54 39.7 °F /  4.3 °C 39.5 °F /  4.2 °C 29.75in /  1007.3hPa SW 10.2mph /  16.4km/h 9mph /  14.5km/h 99% 0.16in /  4.06mm 4 W/m2
06:59 39.6 °F /  4.2 °C 39.3 °F /  4.1 °C 29.75in /  1007.3hPa SW 10.7mph /  17.2km/h 14mph /  22.5km/h 99% 0.16in /  4.06mm 7 W/m2
07:04 39.4 °F /  4.1 °C 39.1 °F /  3.9 °C 29.76in /  1007.7hPa SW 10.7mph /  17.2km/h 13mph /  20.9km/h 99% 0.16in /  4.06mm 8 W/m2
07:09 39.3 °F /  4.1 °C 39 °F /  3.9 °C 29.76in /  1007.7hPa SW 9.9mph /  15.9km/h 13mph /  20.9km/h 99% 0.16in /  4.06mm 10 W/m2
07:14 39.2 °F /  4 °C 38.9 °F /  3.8 °C 29.77in /  1008hPa SW 9mph /  14.5km/h 12mph /  19.3km/h 99% 0.16in /  4.06mm 14 W/m2
07:19 39 °F /  3.9 °C 38.8 °F /  3.8 °C 29.77in /  1008hPa SW 10.6mph /  17.1km/h 12mph /  19.3km/h 99% 0.16in /  4.06mm 15 W/m2
07:24 39 °F /  3.9 °C 38.8 °F /  3.8 °C 29.77in /  1008hPa SW 9.6mph /  15.4km/h 13mph /  20.9km/h 99% 0.16in /  4.06mm 19 W/m2
07:29 38.8 °F /  3.8 °C 38.6 °F /  3.7 °C 29.78in /  1008.4hPa SW 9.9mph /  15.9km/h 12mph /  19.3km/h 99% 0.16in /  4.06mm 19 W/m2
07:34 38.8 °F /  3.8 °C 38.6 °F /  3.7 °C 29.78in /  1008.4hPa SW 9.8mph /  15.8km/h 11mph /  17.7km/h 99% 0.16in /  4.06mm 21 W/m2
07:39 38.8 °F /  3.8 °C 38.5 °F /  3.6 °C 29.78in /  1008.4hPa SW 9mph /  14.5km/h 11mph /  17.7km/h 99% 0.01in /  0.25mm 25 W/m2
07:44 38.7 °F /  3.7 °C 38.4 °F /  3.6 °C 29.78in /  1008.4hPa SW 11.5mph /  18.5km/h 12mph /  19.3km/h 99% 0.01in /  0.25mm 29 W/m2
07:49 38.5 °F /  3.6 °C 38.2 °F /  3.4 °C 29.79in /  1008.7hPa SW 11.1mph /  17.9km/h 14mph /  22.5km/h 99% 0.01in /  0.25mm 31 W/m2
07:54 38.5 °F /  3.6 °C 38.2 °F /  3.4 °C 29.79in /  1008.7hPa SW 10.9mph /  17.5km/h 12mph /  19.3km/h 99% 0.01in /  0.25mm 31 W/m2
07:59 38.3 °F /  3.5 °C 38 °F /  3.3 °C 29.79in /  1008.7hPa SW 11.6mph /  18.7km/h 13mph /  20.9km/h 99% 0.01in /  0.25mm 31 W/m2
08:04 38.3 °F /  3.5 °C 38 °F /  3.3 °C 29.79in /  1008.7hPa SW 8.8mph /  14.2km/h 13mph /  20.9km/h 99% 0.01in /  0.25mm 33 W/m2
08:09 38.3 °F /  3.5 °C 38 °F /  3.3 °C 29.79in /  1008.7hPa SW 10.5mph /  16.9km/h 9mph /  14.5km/h 99% 0.01in /  0.25mm 34 W/m2
08:14 38.3 °F /  3.5 °C 38 °F /  3.3 °C 29.79in /  1008.7hPa SW 11.1mph /  17.9km/h 13mph /  20.9km/h 99% 0.01in /  0.25mm 39 W/m2
08:19 38.3 °F /  3.5 °C 38 °F /  3.3 °C 29.80in /  1009hPa SW 11.8mph /  19km/h 15mph /  24.1km/h 99% 0.01in /  0.25mm 66 W/m2
08:24 38.3 °F /  3.5 °C 38 °F /  3.3 °C 29.80in /  1009hPa SW 10.9mph /  17.5km/h 15mph /  24.1km/h 99% 0.01in /  0.25mm 98 W/m2
08:29 38.3 °F /  3.5 °C 38 °F /  3.3 °C 29.80in /  1009hPa SW 10.5mph /  16.9km/h 12mph /  19.3km/h 99% 0.01in /  0.25mm 107 W/m2
08:34 38.4 °F /  3.6 °C 38.1 °F /  3.4 °C 29.80in /  1009hPa SW 9.5mph /  15.3km/h 13mph /  20.9km/h 99% 0.01in /  0.25mm 129 W/m2
08:39 38.5 °F /  3.6 °C 38.2 °F /  3.4 °C 29.80in /  1009hPa SW 10.1mph /  16.3km/h 11mph /  17.7km/h 99% 0.01in /  0.25mm 127 W/m2
08:44 38.5 °F /  3.6 °C 38.2 °F /  3.4 °C 29.80in /  1009hPa SW 9.8mph /  15.8km/h 13mph /  20.9km/h 99% 0.01in /  0.25mm 101 W/m2
08:49 38.7 °F /  3.7 °C 38.3 °F /  3.5 °C 29.81in /  1009.4hPa SW 8.5mph /  13.7km/h 11mph /  17.7km/h 99% 0.00in /  0mm 93 W/m2
08:54 38.7 °F /  3.7 °C 38.4 °F /  3.6 °C 29.81in /  1009.4hPa SW 5.9mph /  9.5km/h 11mph /  17.7km/h 99% 0.00in /  0mm 74 W/m2
08:59 38.7 °F /  3.7 °C 38.5 °F /  3.6 °C 29.81in /  1009.4hPa SW 5.9mph /  9.5km/h 6mph /  9.7km/h 99% 0.00in /  0mm 60 W/m2
09:04 38.8 °F /  3.8 °C 38.5 °F /  3.6 °C 29.81in /  1009.4hPa SW 6.8mph /  10.9km/h 8mph /  12.9km/h 99% 0.00in /  0mm 60 W/m2
09:09 38.8 °F /  3.8 °C 38.6 °F /  3.7 °C 29.81in /  1009.4hPa SW 7.4mph /  11.9km/h 8mph /  12.9km/h 99% 0.00in /  0mm 60 W/m2
09:14 38.9 °F /  3.8 °C 38.7 °F /  3.7 °C 29.81in /  1009.4hPa SW 7.2mph /  11.6km/h 10mph /  16.1km/h 99% 0.00in /  0mm 76 W/m2
09:19 39 °F /  3.9 °C 38.8 °F /  3.8 °C 29.81in /  1009.4hPa SW 9.2mph /  14.8km/h 10mph /  16.1km/h 99% 0.00in /  0mm 122 W/m2
09:24 39 °F /  3.9 °C 38.8 °F /  3.8 °C 29.81in /  1009.4hPa SW 8mph /  12.9km/h 10mph /  16.1km/h 99% 0.00in /  0mm 196 W/m2
09:29 39.2 °F /  4 °C 38.9 °F /  3.8 °C 29.81in /  1009.4hPa SW 9.1mph /  14.6km/h 9mph /  14.5km/h 99% 0.00in /  0mm 196 W/m2
09:34 39.3 °F /  4.1 °C 39 °F /  3.9 °C 29.81in /  1009.4hPa SW 9.6mph /  15.4km/h 10mph /  16.1km/h 99% 0.00in /  0mm 182 W/m2
09:39 39.6 °F /  4.2 °C 39.3 °F /  4.1 °C 29.82in /  1009.7hPa SW 9.4mph /  15.1km/h 11mph /  17.7km/h 99% 0.00in /  0mm 181 W/m2
09:44 39.6 °F /  4.2 °C 39.4 °F /  4.1 °C 29.82in /  1009.7hPa SW 10.6mph /  17.1km/h 12mph /  19.3km/h 99% 0.00in /  0mm 159 W/m2
09:49 39.7 °F /  4.3 °C 39.5 °F /  4.2 °C 29.83in /  1010hPa SW 8.4mph /  13.5km/h 12mph /  19.3km/h 99% 0.00in /  0mm 105 W/m2
09:54 39.7 °F /  4.3 °C 39.5 °F /  4.2 °C 29.83in /  1010hPa SW 7.9mph /  12.7km/h 10mph /  16.1km/h 99% 0.00in /  0mm 80 W/m2
09:59 39.7 °F /  4.3 °C 39.5 °F /  4.2 °C 29.83in /  1010hPa SW 5.9mph /  9.5km/h 8mph /  12.9km/h 99% 0.00in /  0mm 99 W/m2
10:04 39.9 °F /  4.4 °C 39.7 °F /  4.3 °C 29.83in /  1010hPa SW 8.9mph /  14.3km/h 9mph /  14.5km/h 99% 0.00in /  0mm 107 W/m2
10:09 39.9 °F /  4.4 °C 39.7 °F /  4.3 °C 29.83in /  1010hPa SW 8.6mph /  13.8km/h 12mph /  19.3km/h 99% 0.00in /  0mm 120 W/m2
10:14 40 °F /  4.4 °C 39.8 °F /  4.3 °C 29.83in /  1010hPa SW 8.1mph /  13km/h 10mph /  16.1km/h 99% 0.00in /  0mm 125 W/m2
10:19 40.1 °F /  4.5 °C 39.8 °F /  4.3 °C 29.83in /  1010hPa WSW 6.6mph /  10.6km/h 9mph /  14.5km/h 99% 0.00in /  0mm 134 W/m2
10:24 40.2 °F /  4.6 °C 39.9 °F /  4.4 °C 29.83in /  1010hPa WSW 7.9mph /  12.7km/h 8mph /  12.9km/h 99% 0.00in /  0mm 187 W/m2
10:29 40.4 °F /  4.7 °C 40.1 °F /  4.5 °C 29.83in /  1010hPa WSW 8.8mph /  14.2km/h 10mph /  16.1km/h 99% 0.00in /  0mm 187 W/m2
10:34 40.6 °F /  4.8 °C 40.3 °F /  4.6 °C 29.83in /  1010hPa WSW 8.6mph /  13.8km/h 9mph /  14.5km/h 99% 0.00in /  0mm 172 W/m2
10:39 40.6 °F /  4.8 °C 40.4 °F /  4.7 °C 29.83in /  1010hPa West 8.4mph /  13.5km/h 12mph /  19.3km/h 99% 0.00in /  0mm 206 W/m2
10:44 40.8 °F /  4.9 °C 40.6 °F /  4.8 °C 29.83in /  1010hPa West 8.5mph /  13.7km/h 9mph /  14.5km/h 99% 0.00in /  0mm 213 W/m2
10:49 41 °F /  5 °C 40.7 °F /  4.8 °C 29.83in /  1010hPa West 8.7mph /  14km/h 10mph /  16.1km/h 99% 0.00in /  0mm 222 W/m2
10:54 41.1 °F /  5.1 °C 40.8 °F /  4.9 °C 29.83in /  1010hPa WSW 8.9mph /  14.3km/h 9mph /  14.5km/h 99% 0.00in /  0mm 190 W/m2
10:59 41.3 °F /  5.2 °C 41 °F /  5 °C 29.83in /  1010hPa WSW 8.9mph /  14.3km/h 9mph /  14.5km/h 99% 0.00in /  0mm 292 W/m2
Knjazevac, Serbia
Compliments of Weather Underground - 2 mb